Flight Track Log - Related Links

Times and Time Zones

All times are in EDT time to prevent confusion due to time zone crossing. See the EJA114 flight status page for this flight to view local times or setup timezone preferences in your user account.

Time Position Orientation Groundspeed Altitude Reporting Facility
EDT Latitude Longitude Course Direction KTS MPH feet Rate Location/Type
Wed 02:18:02 PM 38.9833 -77.5500 44° Northeast 222 255 3,100  Level Potomac TRACON
Wed 02:19:02 PM 39.0500 -77.5833 339° North 249 287 5,000 1,850 Climbing Potomac TRACON
Wed 02:20:02 PM 39.1167 -77.5833 360° North 266 306 6,800 1,934 Climbing Potomac TRACON
Wed 02:21:03 PM 39.1667 -77.5167 46° Northeast 286 329 8,900 1,091 Climbing Potomac TRACON
Wed 02:22:03 PM 39.2000 -77.4167 67° East 311 358 9,000 700 Climbing Potomac TRACON
Wed 02:23:00 PM 40.1801 -73.2041 44° Northeast  Level FlightAware Approximate
Wed 02:24:03 PM 39.2714 -77.2161 65° Northeast 326 375 11,000  Level Washington Center
Wed 02:25:04 PM 39.3081 -77.1206 64° Northeast 326 375 13,200 1,884 Climbing Washington Center
Wed 02:26:04 PM 39.3303 -77.0083 76° East 326 375 14,800 1,587 Climbing Washington Center
Wed 02:27:05 PM 39.2961 -76.9003 112° Southeast 304 350 16,400 1,563 Climbing Washington Center
Wed 02:28:03 PM 39.2639 -76.7897 111° Southeast 314 361 17,900 1,361 Climbing Washington Center
Wed 02:29:04 PM 39.2294 -76.6767 111° Southeast 331 381 19,100 1,328 Climbing Washington Center
Wed 02:30:05 PM 39.1928 -76.5664 113° Southeast 331 381 20,600 1,513 Climbing Washington Center
Wed 02:31:03 PM 39.1603 -76.4561 111° Southeast 331 381 22,100 1,220 Climbing Washington Center
Wed 02:32:03 PM 39.1278 -76.3489 111° Southeast 331 381 23,000 446 Climbing Washington Center
Wed 02:33:04 PM 39.0908 -76.2361 113° Southeast 331 381 23,000  Level Washington Center
Wed 02:34:05 PM 39.0561 -76.1047 109° East 356 410 23,000  Level Washington Center
Wed 02:35:05 PM 39.0483 -75.9578 94° East 388 447 23,000  Level Washington Center
Wed 02:36:02 PM 39.0550 -75.8000 87° East 410 472 23,000  Level Washington Center
Wed 02:37:03 PM 39.0633 -75.6369 86° East 433 498 23,000  Level Washington Center
Wed 02:38:04 PM 39.0694 -75.4739 87° East 446 513 23,000  Level Washington Center
Wed 02:39:05 PM 39.1172 -75.3214 68° East 451 519 23,000  Level Washington Center
Wed 02:40:04 PM 39.1711 -75.1686 65° Northeast 451 519 23,000  Level Washington Center
Wed 02:41:04 PM 39.2306 -74.9967 66° East 466 536 23,000  Level Washington Center
Wed 02:42:05 PM 39.2839 -74.8433 66° East 466 536 23,000  Level Washington Center
Wed 02:43:06 PM 39.3392 -74.6872 65° Northeast 466 536 23,000  Level Washington Center
Wed 02:45:05 PM 39.4456 -74.3758 66° East 498 573 23,000 -235 Level New York Center
Wed 02:46:05 PM 39.4961 -74.2225 67° East 480 552 22,300 -1,017 Descending New York Center
Wed 02:47:03 PM 39.5628 -74.0803 59° Northeast 466 536 21,000 -1,059 Descending New York Center
Wed 02:48:04 PM 39.6453 -73.9628 48° Northeast 444 511 20,200 -1,279 Descending New York Center
Wed 02:49:05 PM 39.7336 -73.8508 44° Northeast 444 511 18,400 -1,613 Descending New York Center
Wed 02:50:03 PM 39.8197 -73.7439 44° Northeast 423 487 17,000 -700 Descending New York Center
Wed 02:51:05 PM 39.9017 -73.6364 45° Northeast 418 481 17,000  Level New York Center
Wed 02:52:05 PM 39.9878 -73.5289 44° Northeast 418 481 17,000 -458 Level New York Center
Wed 02:53:03 PM 40.0736 -73.4211 44° Northeast 424 488 16,100 -1,797 Descending New York Center
Wed 02:55:32 PM 40.2619 -73.1797 44° Northeast 396 456 10,800 -2,038 Descending Boston Center
Wed 02:56:32 PM 40.3292 -73.0933 44° Northeast 366 421 9,000 -950 Descending Boston Center
Wed 02:57:32 PM 40.3900 -73.0122 45° Northeast 329 379 8,900 -1,000 Descending Boston Center
Wed 02:58:32 PM 40.4489 -72.9336 45° Northeast 304 350 7,000 -1,000 Descending Boston Center
Wed 02:59:32 PM 40.5033 -72.8631 45° Northeast 286 329 6,900 -50 Descending Boston Center
Wed 03:00:32 PM 40.5492 -72.8006 46° Northeast 257 296 6,900  Level Boston Center
Wed 03:01:32 PM 40.5475 -72.7350 92° East 214 246 6,900  Level Boston Center
Wed 03:02:32 PM 40.4994 -72.7758 213° Southwest 69 79 6,900  Level Boston Center
Wed 03:03:32 PM 40.4575 -72.8328 226° Southwest 143 165 6,900  Level Boston Center
Wed 03:04:32 PM 40.4197 -72.8844 226° Southwest 180 207 6,900 50 Level Boston Center
Wed 03:05:32 PM 40.4008 -72.9469 248° West 192 221 7,000  Climbing Boston Center
Wed 03:06:32 PM 40.4572 -72.9228 18° North 92 106 6,900  Descending Boston Center
Wed 03:07:32 PM 40.5094 -72.8578 43° Northeast 133 153 7,000 50 Climbing Boston Center
Wed 03:08:32 PM 40.5597 -72.7953 43° Northeast 202 232 7,000 -50 Level Boston Center
Wed 03:09:32 PM 40.5661 -72.7242 83° East 200 230 6,900  Descending Boston Center
Wed 03:10:32 PM 40.5222 -72.7567 209° Southwest 73 84 7,000 -31 Climbing Boston Center
Wed 03:12:44 PM 40.6167 -72.7333 11° North 247 284 6,800 -786 Descending New York TRACON
Wed 03:14:44 PM 40.7167 -72.6000 45° Northeast 251 289 3,700 -950 Descending New York TRACON
Wed 03:16:00 PM 40.8333 -72.6167 17° North  Level FlightAware Approximate
Wed 03:16:44 PM 40.8167 -72.4667 17° North 234 269 3,000  Level New York TRACON

Login

Don't have an account? Register now (free) for customized features, flight alerts, and more!